Terminal Aerodrome Forecast
Issued by NWS

Home | Current Version | Previous Version | Text Only | Print | Product List | Glossary On
Versions: 1 2 3 4 5 6 7 8 9 10 11 12 13 14 15 16 17 18 19 20 21 22 23 24 25 26 27 28 29 30
000
FTUS45 KSLC 210749 AAA
TAFOGD
TAF AMD
KOGD 210749Z 2108/2206 15008KT 2SM -SN BR SCT007 BKN025
     FM210830 15006KT P6SM VCSH SCT020 BKN040
     FM211200 29006KT 1SM -SN SCT004 BKN010
     FM212000 32008KT P6SM VCSH SCT020 BKN040
     FM220300 17006KT P6SM SCT040 BKN080=

USA.gov is the U.S. government's official web portal to all federal, state and local government web resources and services.